Home   Weather   Fairfield Arena   Past weeks
Flag for USA

Past Weather in Fairfield Arena, Texas, USA — Yesterday and Last 2 Weeks

Currently: 70 °F. Clear. (Weather station: Palestine Municipal Airport, USA). See more current weather

Past Weather in Fairfield Arena — Graph

°F

Fairfield Arena Temperature Yesterday

Maximum temperature yesterday: 86 °F (at 2:55 pm)
Minimum temperature yesterday: 52 °F (at 6:15 am)
Average temperature yesterday: 68 °F

High & Low Weather Summary for the Past Weeks

 TemperatureHumidityPressure
High97 °F (Sep 20, 3:55 pm)100% (Sep 11, 4:55 am)30.31 "Hg (Sep 11, 4:55 am)
Low46 °F (Sep 23, 6:35 am)19% (Sep 22, 3:15 pm)29.82 "Hg (Sep 15, 3:35 pm)
Average75 °F71%30.01 "Hg
* Reported Sep 10 7:15 pm — Sep 25 7:15 pm, Fairfield Arena. Weather by CustomWeather, © 2021

Note: Actual official high and low records may vary slightly from our data, if they occured in-between our weather recording intervals... More about our weather records

Fairfield Arena Weather History for the Previous 24 Hours

Scroll right to see more
 ConditionsComfort  
Time TempWeatherWind HumidityBarometerVisibility
7:15 pm
Sat, Sep 25
77 °FClear.No wind57%30.05 "Hg8 mi
6:55 pm82 °FSunny.No wind40%30.05 "Hg8 mi
6:15 pm86 °FSunny.No wind33%30.05 "Hg8 mi
5:55 pm86 °FSunny.6 mph33%30.05 "Hg8 mi
5:35 pm86 °FSunny.3 mph33%30.05 "Hg8 mi
5:15 pm88 °FSunny.5 mph31%30.05 "Hg8 mi
4:55 pm88 °FSunny.No wind31%30.05 "Hg8 mi
4:15 pm88 °FSunny.No wind29%30.06 "Hg6 mi
3:55 pm88 °FSunny.5 mph31%30.07 "Hg8 mi
3:35 pm86 °FSunny.5 mph33%30.07 "Hg7 mi
3:15 pm86 °FSunny.3 mph33%30.08 "Hg8 mi
2:55 pm88 °FSunny.7 mph31%30.08 "Hg7 mi
2:35 pm86 °FSunny.7 mph33%30.09 "Hg8 mi
2:15 pm86 °FSunny.7 mph33%30.11 "Hg8 mi
1:55 pm86 °FSunny.No wind33%30.12 "Hg8 mi
1:35 pm84 °FSunny.5 mph35%30.13 "Hg8 mi
12:55 pm82 °FSunny.6 mph42%30.14 "Hg8 mi
12:35 pm81 °FSunny.5 mph45%30.15 "Hg8 mi
12:15 pm81 °FSunny.5 mph45%30.15 "Hg8 mi
11:55 am79 °FSunny.No wind51%30.16 "Hg8 mi
11:35 am79 °FSunny.8 mph51%30.16 "Hg8 mi
11:15 am77 °FSunny.No wind51%30.17 "Hg8 mi
10:55 am77 °FSunny.6 mph47%30.17 "Hg8 mi
10:35 am77 °FSunny.6 mph44%30.17 "Hg8 mi
10:15 am75 °FSunny.7 mph47%30.17 "Hg7 mi
9:55 am73 °FSunny.6 mph50%30.17 "Hg7 mi
9:35 am72 °FSunny.5 mph53%30.16 "Hg7 mi
9:15 am68 °FSunny.5 mph64%30.16 "Hg7 mi
8:55 am66 °FSunny.No wind68%30.16 "Hg7 mi
8:35 am63 °FSunny.No wind83%30.15 "Hg7 mi
8:15 am59 °FSunny.No wind94%30.15 "Hg7 mi
7:55 am55 °FSunny.No wind94%30.14 "Hg7 mi
7:15 am54 °FFog.No wind100%30.13 "Hg6 mi
6:55 am54 °FPassing clouds.No wind100%30.12 "Hg8 mi
6:35 am54 °FPassing clouds.No wind100%30.11 "Hg8 mi
6:15 am54 °FPassing clouds.No wind100%30.11 "Hg8 mi
5:55 am54 °FPassing clouds.No wind100%30.10 "Hg8 mi
5:35 am55 °FPassing clouds.No wind94%30.10 "Hg8 mi
5:15 am55 °FPassing clouds.No wind100%30.09 "Hg8 mi
4:55 am55 °FPassing clouds.5 mph100%30.09 "Hg8 mi
4:35 am55 °FClear.No wind100%30.09 "Hg8 mi
4:15 am55 °FClear.No wind100%30.09 "Hg8 mi
3:55 am57 °FClear.No wind94%30.09 "Hg8 mi
3:35 am57 °FClear.No wind94%30.08 "Hg8 mi
3:15 am59 °FClear.No wind88%30.08 "Hg9 mi
2:55 am61 °FClear.3 mph77%30.08 "Hg9 mi
2:35 am63 °FPassing clouds.5 mph73%30.08 "Hg9 mi
2:15 am63 °FPassing clouds.3 mph73%30.08 "Hg9 mi
1:55 am64 °FClear.5 mph68%30.07 "Hg9 mi
1:35 am64 °FClear.5 mph68%30.07 "Hg9 mi
1:15 am64 °FPassing clouds.6 mph68%30.07 "Hg9 mi
12:55 am63 °FPassing clouds.5 mph77%30.07 "Hg9 mi
12:15 am64 °FPassing clouds.5 mph68%30.07 "Hg9 mi
11:55 pm
Fri, Sep 24
61 °FPassing clouds.5 mph88%30.07 "Hg9 mi
11:35 pm61 °FPassing clouds.No wind88%30.07 "Hg9 mi
11:15 pm61 °FPassing clouds.No wind88%30.06 "Hg9 mi
10:55 pm61 °FPassing clouds.No wind88%30.06 "Hg9 mi
10:35 pm63 °FPassing clouds.No wind83%30.06 "Hg9 mi
10:15 pm63 °FPassing clouds.No wind83%30.06 "Hg9 mi
9:55 pm63 °FPassing clouds.No wind83%30.05 "Hg9 mi
9:35 pm63 °FPassing clouds.No wind83%30.05 "Hg9 mi
9:15 pm64 °FPassing clouds.No wind73%30.05 "Hg9 mi
8:55 pm64 °FClear.No wind78%30.04 "Hg9 mi
8:35 pm64 °FClear.No wind83%30.03 "Hg9 mi
8:15 pm68 °FClear.No wind69%30.03 "Hg9 mi
Weather by CustomWeather, © 2021

See weather overview